sensor_id;sensor_type;location;lat;lon;timestamp;P1;durP1;ratioP1;P2;durP2;ratioP2
4961;SDS011;2496;52.468;13.342;2024-03-06T00:01:57;25.30;;;15.20;;
4961;SDS011;2496;52.468;13.342;2024-03-06T00:04:24;24.27;;;15.43;;
4961;SDS011;2496;52.468;13.342;2024-03-06T00:06:52;24.73;;;15.47;;
4961;SDS011;2496;52.468;13.342;2024-03-06T00:09:20;22.30;;;14.37;;
4961;SDS011;2496;52.468;13.342;2024-03-06T00:11:47;24.50;;;15.83;;
4961;SDS011;2496;52.468;13.342;2024-03-06T00:14:16;24.63;;;15.27;;
4961;SDS011;2496;52.468;13.342;2024-03-06T00:16:43;26.83;;;15.60;;
4961;SDS011;2496;52.468;13.342;2024-03-06T00:19:10;22.30;;;14.23;;
4961;SDS011;2496;52.468;13.342;2024-03-06T00:21:38;29.77;;;16.50;;
4961;SDS011;2496;52.468;13.342;2024-03-06T00:24:07;26.37;;;15.60;;
4961;SDS011;2496;52.468;13.342;2024-03-06T00:26:34;27.33;;;16.73;;
4961;SDS011;2496;52.468;13.342;2024-03-06T00:29:02;28.10;;;15.47;;
4961;SDS011;2496;52.468;13.342;2024-03-06T00:31:30;24.57;;;16.00;;
4961;SDS011;2496;52.468;13.342;2024-03-06T00:33:57;23.40;;;16.13;;
4961;SDS011;2496;52.468;13.342;2024-03-06T00:36:25;27.07;;;15.77;;
4961;SDS011;2496;52.468;13.342;2024-03-06T00:38:52;23.37;;;14.77;;
4961;SDS011;2496;52.468;13.342;2024-03-06T00:41:21;25.33;;;15.67;;
4961;SDS011;2496;52.468;13.342;2024-03-06T00:43:49;25.47;;;15.07;;
4961;SDS011;2496;52.468;13.342;2024-03-06T00:46:16;24.50;;;15.60;;
4961;SDS011;2496;52.468;13.342;2024-03-06T00:48:43;27.73;;;17.50;;
4961;SDS011;2496;52.468;13.342;2024-03-06T00:51:10;23.17;;;14.97;;
4961;SDS011;2496;52.468;13.342;2024-03-06T00:53:37;25.47;;;16.33;;
4961;SDS011;2496;52.468;13.342;2024-03-06T00:56:05;31.50;;;17.30;;
4961;SDS011;2496;52.468;13.342;2024-03-06T00:58:37;25.20;;;15.30;;
4961;SDS011;2496;52.468;13.342;2024-03-06T01:01:04;26.70;;;16.13;;
4961;SDS011;2496;52.468;13.342;2024-03-06T01:03:31;23.30;;;14.80;;
4961;SDS011;2496;52.468;13.342;2024-03-06T01:05:59;28.00;;;15.47;;
4961;SDS011;2496;52.468;13.342;2024-03-06T01:08:26;25.60;;;16.20;;
4961;SDS011;2496;52.468;13.342;2024-03-06T01:10:53;26.37;;;16.40;;
4961;SDS011;2496;52.468;13.342;2024-03-06T01:13:20;28.50;;;16.77;;
4961;SDS011;2496;52.468;13.342;2024-03-06T01:15:49;24.33;;;15.50;;
4961;SDS011;2496;52.468;13.342;2024-03-06T01:18:16;27.37;;;15.57;;
4961;SDS011;2496;52.468;13.342;2024-03-06T01:20:43;23.73;;;14.33;;
4961;SDS011;2496;52.468;13.342;2024-03-06T01:23:11;27.73;;;15.33;;
4961;SDS011;2496;52.468;13.342;2024-03-06T01:25:38;26.40;;;14.10;;
4961;SDS011;2496;52.468;13.342;2024-03-06T01:28:05;25.43;;;15.53;;
4961;SDS011;2496;52.468;13.342;2024-03-06T01:30:33;24.97;;;16.30;;
4961;SDS011;2496;52.468;13.342;2024-03-06T01:33:01;35.00;;;16.37;;
4961;SDS011;2496;52.468;13.342;2024-03-06T01:35:30;28.13;;;14.97;;
4961;SDS011;2496;52.468;13.342;2024-03-06T01:37:57;25.60;;;16.90;;
4961;SDS011;2496;52.468;13.342;2024-03-06T01:40:26;29.80;;;17.20;;
4961;SDS011;2496;52.468;13.342;2024-03-06T01:42:54;26.20;;;15.80;;
4961;SDS011;2496;52.468;13.342;2024-03-06T01:45:21;26.80;;;15.47;;
4961;SDS011;2496;52.468;13.342;2024-03-06T01:47:48;23.87;;;15.63;;
4961;SDS011;2496;52.468;13.342;2024-03-06T01:50:18;20.10;;;14.60;;
4961;SDS011;2496;52.468;13.342;2024-03-06T01:52:45;25.33;;;14.97;;
4961;SDS011;2496;52.468;13.342;2024-03-06T01:55:13;28.80;;;17.00;;
4961;SDS011;2496;52.468;13.342;2024-03-06T01:57:40;24.60;;;16.00;;
4961;SDS011;2496;52.468;13.342;2024-03-06T02:00:08;30.73;;;16.30;;
4961;SDS011;2496;52.468;13.342;2024-03-06T02:02:39;28.90;;;16.40;;
4961;SDS011;2496;52.468;13.342;2024-03-06T02:05:08;28.23;;;16.50;;
4961;SDS011;2496;52.468;13.342;2024-03-06T02:07:37;24.23;;;14.90;;
4961;SDS011;2496;52.468;13.342;2024-03-06T02:10:06;26.30;;;16.33;;
4961;SDS011;2496;52.468;13.342;2024-03-06T02:12:37;20.63;;;14.97;;
4961;SDS011;2496;52.468;13.342;2024-03-06T02:15:05;25.57;;;16.50;;
4961;SDS011;2496;52.468;13.342;2024-03-06T02:17:33;22.60;;;14.93;;
4961;SDS011;2496;52.468;13.342;2024-03-06T02:20:01;26.80;;;16.43;;
4961;SDS011;2496;52.468;13.342;2024-03-06T02:22:32;22.17;;;15.13;;
4961;SDS011;2496;52.468;13.342;2024-03-06T02:24:59;26.33;;;16.17;;
4961;SDS011;2496;52.468;13.342;2024-03-06T02:27:26;25.53;;;15.07;;
4961;SDS011;2496;52.468;13.342;2024-03-06T02:29:54;28.03;;;14.47;;
4961;SDS011;2496;52.468;13.342;2024-03-06T02:32:21;26.43;;;14.83;;
4961;SDS011;2496;52.468;13.342;2024-03-06T02:34:49;26.30;;;15.50;;
4961;SDS011;2496;52.468;13.342;2024-03-06T02:37:16;25.00;;;16.07;;
4961;SDS011;2496;52.468;13.342;2024-03-06T02:39:45;25.57;;;15.03;;
4961;SDS011;2496;52.468;13.342;2024-03-06T02:42:12;22.83;;;15.33;;
4961;SDS011;2496;52.468;13.342;2024-03-06T02:44:39;24.40;;;14.67;;
4961;SDS011;2496;52.468;13.342;2024-03-06T02:47:07;23.10;;;14.80;;
4961;SDS011;2496;52.468;13.342;2024-03-06T02:49:34;24.97;;;15.00;;
4961;SDS011;2496;52.468;13.342;2024-03-06T02:52:01;27.33;;;15.37;;
4961;SDS011;2496;52.468;13.342;2024-03-06T02:54:28;24.00;;;13.93;;
4961;SDS011;2496;52.468;13.342;2024-03-06T02:56:57;22.80;;;14.83;;
4961;SDS011;2496;52.468;13.342;2024-03-06T02:59:25;22.50;;;14.87;;
4961;SDS011;2496;52.468;13.342;2024-03-06T03:01:52;30.53;;;16.77;;
4961;SDS011;2496;52.468;13.342;2024-03-06T03:04:19;25.73;;;15.50;;
4961;SDS011;2496;52.468;13.342;2024-03-06T03:06:46;27.10;;;16.63;;
4961;SDS011;2496;52.468;13.342;2024-03-06T03:09:13;24.60;;;15.47;;
4961;SDS011;2496;52.468;13.342;2024-03-06T03:11:42;26.10;;;17.43;;
4961;SDS011;2496;52.468;13.342;2024-03-06T03:14:11;25.97;;;15.87;;
4961;SDS011;2496;52.468;13.342;2024-03-06T03:16:38;25.80;;;16.30;;
4961;SDS011;2496;52.468;13.342;2024-03-06T03:19:06;24.27;;;16.30;;
4961;SDS011;2496;52.468;13.342;2024-03-06T03:21:34;27.90;;;15.53;;
4961;SDS011;2496;52.468;13.342;2024-03-06T03:24:01;34.33;;;16.40;;
4961;SDS011;2496;52.468;13.342;2024-03-06T03:26:29;28.30;;;15.43;;
4961;SDS011;2496;52.468;13.342;2024-03-06T03:28:56;27.50;;;17.33;;
4961;SDS011;2496;52.468;13.342;2024-03-06T03:31:25;29.33;;;17.13;;
4961;SDS011;2496;52.468;13.342;2024-03-06T03:33:52;29.10;;;16.97;;
4961;SDS011;2496;52.468;13.342;2024-03-06T03:36:20;30.83;;;16.50;;
4961;SDS011;2496;52.468;13.342;2024-03-06T03:38:47;30.17;;;15.60;;
4961;SDS011;2496;52.468;13.342;2024-03-06T03:41:14;29.77;;;16.90;;
4961;SDS011;2496;52.468;13.342;2024-03-06T03:43:42;26.40;;;17.53;;
4961;SDS011;2496;52.468;13.342;2024-03-06T03:46:09;27.57;;;16.67;;
4961;SDS011;2496;52.468;13.342;2024-03-06T03:48:38;35.30;;;17.70;;
4961;SDS011;2496;52.468;13.342;2024-03-06T03:51:05;24.90;;;15.50;;
4961;SDS011;2496;52.468;13.342;2024-03-06T03:53:33;27.60;;;16.67;;
4961;SDS011;2496;52.468;13.342;2024-03-06T03:56:00;27.23;;;16.80;;
4961;SDS011;2496;52.468;13.342;2024-03-06T03:58:28;27.17;;;15.90;;
4961;SDS011;2496;52.468;13.342;2024-03-06T04:00:55;25.60;;;14.47;;
4961;SDS011;2496;52.468;13.342;2024-03-06T04:03:23;26.00;;;15.87;;
4961;SDS011;2496;52.468;13.342;2024-03-06T04:05:51;25.17;;;15.10;;
4961;SDS011;2496;52.468;13.342;2024-03-06T04:08:19;27.10;;;18.00;;
4961;SDS011;2496;52.468;13.342;2024-03-06T04:10:46;27.77;;;15.07;;
4961;SDS011;2496;52.468;13.342;2024-03-06T04:13:14;22.00;;;15.30;;
4961;SDS011;2496;52.468;13.342;2024-03-06T04:15:44;27.23;;;15.93;;
4961;SDS011;2496;52.468;13.342;2024-03-06T04:18:12;26.13;;;16.63;;
4961;SDS011;2496;52.468;13.342;2024-03-06T04:20:39;24.93;;;16.23;;
4961;SDS011;2496;52.468;13.342;2024-03-06T04:23:07;29.77;;;16.47;;
4961;SDS011;2496;52.468;13.342;2024-03-06T04:25:35;33.37;;;16.67;;
4961;SDS011;2496;52.468;13.342;2024-03-06T04:28:02;26.70;;;16.73;;
4961;SDS011;2496;52.468;13.342;2024-03-06T04:30:29;25.17;;;16.77;;
4961;SDS011;2496;52.468;13.342;2024-03-06T04:32:57;32.47;;;17.47;;
4961;SDS011;2496;52.468;13.342;2024-03-06T04:35:24;29.70;;;17.33;;
4961;SDS011;2496;52.468;13.342;2024-03-06T04:37:51;28.80;;;17.97;;
4961;SDS011;2496;52.468;13.342;2024-03-06T04:40:21;33.97;;;17.10;;
4961;SDS011;2496;52.468;13.342;2024-03-06T04:42:50;36.47;;;16.27;;
4961;SDS011;2496;52.468;13.342;2024-03-06T04:45:17;26.00;;;16.07;;
4961;SDS011;2496;52.468;13.342;2024-03-06T04:47:45;32.53;;;17.50;;
4961;SDS011;2496;52.468;13.342;2024-03-06T04:50:12;28.53;;;17.90;;
4961;SDS011;2496;52.468;13.342;2024-03-06T04:52:40;30.40;;;17.27;;
4961;SDS011;2496;52.468;13.342;2024-03-06T04:55:10;29.37;;;17.20;;
4961;SDS011;2496;52.468;13.342;2024-03-06T04:57:39;26.27;;;16.57;;
4961;SDS011;2496;52.468;13.342;2024-03-06T05:00:08;30.97;;;17.67;;
4961;SDS011;2496;52.468;13.342;2024-03-06T05:02:36;28.50;;;17.00;;
4961;SDS011;2496;52.468;13.342;2024-03-06T05:05:04;29.30;;;17.30;;
4961;SDS011;2496;52.468;13.342;2024-03-06T05:07:32;30.57;;;17.57;;
4961;SDS011;2496;52.468;13.342;2024-03-06T05:09:59;33.30;;;18.47;;
4961;SDS011;2496;52.468;13.342;2024-03-06T05:12:27;37.00;;;17.33;;
4961;SDS011;2496;52.468;13.342;2024-03-06T05:14:56;35.63;;;18.20;;
4961;SDS011;2496;52.468;13.342;2024-03-06T05:17:23;29.37;;;17.37;;
4961;SDS011;2496;52.468;13.342;2024-03-06T05:19:50;33.67;;;18.90;;
4961;SDS011;2496;52.468;13.342;2024-03-06T05:22:20;27.30;;;17.90;;
4961;SDS011;2496;52.468;13.342;2024-03-06T05:24:50;30.80;;;18.13;;
4961;SDS011;2496;52.468;13.342;2024-03-06T05:27:18;31.60;;;17.97;;
4961;SDS011;2496;52.468;13.342;2024-03-06T05:29:45;33.63;;;16.80;;
4961;SDS011;2496;52.468;13.342;2024-03-06T05:32:14;28.17;;;17.77;;
4961;SDS011;2496;52.468;13.342;2024-03-06T05:34:41;28.03;;;16.90;;
4961;SDS011;2496;52.468;13.342;2024-03-06T05:37:08;32.23;;;18.97;;
4961;SDS011;2496;52.468;13.342;2024-03-06T05:39:36;33.60;;;18.23;;
4961;SDS011;2496;52.468;13.342;2024-03-06T05:42:03;29.57;;;18.03;;
4961;SDS011;2496;52.468;13.342;2024-03-06T05:44:31;30.20;;;18.03;;
4961;SDS011;2496;52.468;13.342;2024-03-06T05:46:58;30.20;;;17.63;;
4961;SDS011;2496;52.468;13.342;2024-03-06T05:49:27;30.90;;;18.33;;
4961;SDS011;2496;52.468;13.342;2024-03-06T05:51:55;30.63;;;18.10;;
4961;SDS011;2496;52.468;13.342;2024-03-06T05:54:22;31.80;;;17.40;;
4961;SDS011;2496;52.468;13.342;2024-03-06T05:56:50;30.73;;;20.53;;
4961;SDS011;2496;52.468;13.342;2024-03-06T05:59:18;28.97;;;18.23;;
4961;SDS011;2496;52.468;13.342;2024-03-06T06:01:46;27.10;;;15.60;;
4961;SDS011;2496;52.468;13.342;2024-03-06T06:04:13;30.80;;;17.73;;
4961;SDS011;2496;52.468;13.342;2024-03-06T06:06:42;29.17;;;17.23;;
4961;SDS011;2496;52.468;13.342;2024-03-06T06:09:09;29.67;;;17.33;;
4961;SDS011;2496;52.468;13.342;2024-03-06T06:11:41;25.33;;;16.57;;
4961;SDS011;2496;52.468;13.342;2024-03-06T06:14:12;32.23;;;17.57;;
4961;SDS011;2496;52.468;13.342;2024-03-06T06:16:40;32.43;;;18.70;;
4961;SDS011;2496;52.468;13.342;2024-03-06T06:19:07;27.87;;;16.93;;
4961;SDS011;2496;52.468;13.342;2024-03-06T06:21:35;26.67;;;17.23;;
4961;SDS011;2496;52.468;13.342;2024-03-06T06:24:03;28.50;;;17.07;;
4961;SDS011;2496;52.468;13.342;2024-03-06T06:26:31;28.70;;;17.37;;
4961;SDS011;2496;52.468;13.342;2024-03-06T06:28:58;26.23;;;17.10;;
4961;SDS011;2496;52.468;13.342;2024-03-06T06:31:25;27.97;;;16.80;;
4961;SDS011;2496;52.468;13.342;2024-03-06T06:33:53;29.40;;;18.23;;
4961;SDS011;2496;52.468;13.342;2024-03-06T06:36:21;31.07;;;18.27;;
4961;SDS011;2496;52.468;13.342;2024-03-06T06:38:48;33.80;;;19.70;;
4961;SDS011;2496;52.468;13.342;2024-03-06T06:41:18;31.07;;;18.33;;
4961;SDS011;2496;52.468;13.342;2024-03-06T06:43:49;29.43;;;18.10;;
4961;SDS011;2496;52.468;13.342;2024-03-06T06:46:17;31.77;;;19.47;;
4961;SDS011;2496;52.468;13.342;2024-03-06T06:48:46;35.50;;;18.80;;
4961;SDS011;2496;52.468;13.342;2024-03-06T06:51:14;31.70;;;19.20;;
4961;SDS011;2496;52.468;13.342;2024-03-06T06:53:41;34.03;;;18.80;;
4961;SDS011;2496;52.468;13.342;2024-03-06T06:56:09;48.07;;;21.97;;
4961;SDS011;2496;52.468;13.342;2024-03-06T06:58:38;33.07;;;18.77;;
4961;SDS011;2496;52.468;13.342;2024-03-06T07:01:08;34.60;;;19.53;;
4961;SDS011;2496;52.468;13.342;2024-03-06T07:03:35;39.50;;;21.37;;
4961;SDS011;2496;52.468;13.342;2024-03-06T07:06:03;35.70;;;19.73;;
4961;SDS011;2496;52.468;13.342;2024-03-06T07:08:31;39.03;;;19.80;;
4961;SDS011;2496;52.468;13.342;2024-03-06T07:10:58;35.73;;;21.23;;
4961;SDS011;2496;52.468;13.342;2024-03-06T07:13:26;32.70;;;20.07;;
4961;SDS011;2496;52.468;13.342;2024-03-06T07:15:54;34.37;;;20.20;;
4961;SDS011;2496;52.468;13.342;2024-03-06T07:18:22;37.73;;;20.87;;
4961;SDS011;2496;52.468;13.342;2024-03-06T07:20:51;47.83;;;20.13;;
4961;SDS011;2496;52.468;13.342;2024-03-06T07:23:18;36.63;;;20.60;;
4961;SDS011;2496;52.468;13.342;2024-03-06T07:25:45;34.07;;;18.87;;
4961;SDS011;2496;52.468;13.342;2024-03-06T07:28:13;34.07;;;18.93;;
4961;SDS011;2496;52.468;13.342;2024-03-06T07:30:40;32.27;;;19.40;;
4961;SDS011;2496;52.468;13.342;2024-03-06T07:33:09;30.50;;;18.70;;
4961;SDS011;2496;52.468;13.342;2024-03-06T07:35:36;29.73;;;18.93;;
4961;SDS011;2496;52.468;13.342;2024-03-06T07:38:04;32.97;;;19.47;;
4961;SDS011;2496;52.468;13.342;2024-03-06T07:40:31;34.60;;;20.40;;
4961;SDS011;2496;52.468;13.342;2024-03-06T07:42:58;30.10;;;17.43;;
4961;SDS011;2496;52.468;13.342;2024-03-06T07:45:25;31.03;;;17.40;;
4961;SDS011;2496;52.468;13.342;2024-03-06T07:47:53;28.17;;;17.50;;
4961;SDS011;2496;52.468;13.342;2024-03-06T07:50:22;25.20;;;16.77;;
4961;SDS011;2496;52.468;13.342;2024-03-06T07:52:49;44.07;;;16.23;;
4961;SDS011;2496;52.468;13.342;2024-03-06T07:55:17;24.40;;;16.10;;
4961;SDS011;2496;52.468;13.342;2024-03-06T07:57:46;26.80;;;16.90;;
4961;SDS011;2496;52.468;13.342;2024-03-06T08:00:14;23.70;;;14.47;;
4961;SDS011;2496;52.468;13.342;2024-03-06T08:02:44;25.43;;;15.67;;
4961;SDS011;2496;52.468;13.342;2024-03-06T08:05:15;26.33;;;15.80;;
4961;SDS011;2496;52.468;13.342;2024-03-06T08:07:43;28.07;;;15.67;;
4961;SDS011;2496;52.468;13.342;2024-03-06T08:10:11;23.57;;;14.90;;
4961;SDS011;2496;52.468;13.342;2024-03-06T08:12:39;22.50;;;15.57;;
4961;SDS011;2496;52.468;13.342;2024-03-06T08:15:08;29.83;;;15.27;;
4961;SDS011;2496;52.468;13.342;2024-03-06T08:17:36;26.57;;;14.07;;
4961;SDS011;2496;52.468;13.342;2024-03-06T08:20:04;20.20;;;13.93;;
4961;SDS011;2496;52.468;13.342;2024-03-06T08:22:33;20.20;;;13.17;;
4961;SDS011;2496;52.468;13.342;2024-03-06T08:25:05;28.03;;;15.27;;
4961;SDS011;2496;52.468;13.342;2024-03-06T08:27:33;23.53;;;13.20;;
4961;SDS011;2496;52.468;13.342;2024-03-06T08:30:00;19.33;;;13.37;;
4961;SDS011;2496;52.468;13.342;2024-03-06T08:32:29;21.67;;;13.03;;
4961;SDS011;2496;52.468;13.342;2024-03-06T08:34:58;30.70;;;12.90;;
4961;SDS011;2496;52.468;13.342;2024-03-06T08:37:25;18.47;;;12.90;;
4961;SDS011;2496;52.468;13.342;2024-03-06T08:39:53;28.63;;;12.73;;
4961;SDS011;2496;52.468;13.342;2024-03-06T08:42:21;22.37;;;13.10;;
4961;SDS011;2496;52.468;13.342;2024-03-06T08:44:48;19.47;;;13.20;;
4961;SDS011;2496;52.468;13.342;2024-03-06T08:47:16;23.30;;;12.87;;
4961;SDS011;2496;52.468;13.342;2024-03-06T08:49:43;23.70;;;12.07;;
4961;SDS011;2496;52.468;13.342;2024-03-06T08:52:10;20.37;;;13.07;;
4961;SDS011;2496;52.468;13.342;2024-03-06T08:54:38;23.20;;;12.30;;
4961;SDS011;2496;52.468;13.342;2024-03-06T08:57:06;24.43;;;13.27;;
4961;SDS011;2496;52.468;13.342;2024-03-06T08:59:35;18.30;;;12.30;;
4961;SDS011;2496;52.468;13.342;2024-03-06T09:02:11;17.90;;;11.30;;
4961;SDS011;2496;52.468;13.342;2024-03-06T09:04:39;17.57;;;11.50;;
4961;SDS011;2496;52.468;13.342;2024-03-06T09:07:06;22.97;;;12.83;;
4961;SDS011;2496;52.468;13.342;2024-03-06T09:09:34;19.23;;;11.50;;
4961;SDS011;2496;52.468;13.342;2024-03-06T09:12:01;16.60;;;12.47;;
4961;SDS011;2496;52.468;13.342;2024-03-06T09:14:30;16.00;;;12.13;;
4961;SDS011;2496;52.468;13.342;2024-03-06T09:16:58;20.00;;;10.00;;
4961;SDS011;2496;52.468;13.342;2024-03-06T09:19:26;15.93;;;11.27;;
4961;SDS011;2496;52.468;13.342;2024-03-06T09:21:53;16.27;;;10.00;;
4961;SDS011;2496;52.468;13.342;2024-03-06T09:24:20;17.80;;;9.77;;
4961;SDS011;2496;52.468;13.342;2024-03-06T09:26:48;18.33;;;11.10;;
4961;SDS011;2496;52.468;13.342;2024-03-06T09:29:15;15.23;;;9.40;;
4961;SDS011;2496;52.468;13.342;2024-03-06T09:31:42;16.10;;;9.93;;
4961;SDS011;2496;52.468;13.342;2024-03-06T09:34:11;26.03;;;11.00;;
4961;SDS011;2496;52.468;13.342;2024-03-06T09:36:39;18.90;;;10.83;;
4961;SDS011;2496;52.468;13.342;2024-03-06T09:39:09;14.73;;;9.07;;
4961;SDS011;2496;52.468;13.342;2024-03-06T09:41:37;14.23;;;9.87;;
4961;SDS011;2496;52.468;13.342;2024-03-06T09:44:06;14.60;;;10.47;;
4961;SDS011;2496;52.468;13.342;2024-03-06T09:46:33;13.87;;;9.07;;
4961;SDS011;2496;52.468;13.342;2024-03-06T09:49:01;19.27;;;9.47;;
4961;SDS011;2496;52.468;13.342;2024-03-06T09:51:30;15.73;;;10.67;;
4961;SDS011;2496;52.468;13.342;2024-03-06T09:53:58;13.73;;;9.53;;
4961;SDS011;2496;52.468;13.342;2024-03-06T09:56:25;14.10;;;9.83;;
4961;SDS011;2496;52.468;13.342;2024-03-06T09:58:52;21.80;;;10.60;;
4961;SDS011;2496;52.468;13.342;2024-03-06T10:01:20;15.97;;;9.97;;
4961;SDS011;2496;52.468;13.342;2024-03-06T10:03:49;14.57;;;9.73;;
4961;SDS011;2496;52.468;13.342;2024-03-06T10:06:16;14.60;;;10.70;;
4961;SDS011;2496;52.468;13.342;2024-03-06T10:08:45;16.33;;;10.37;;
4961;SDS011;2496;52.468;13.342;2024-03-06T10:11:14;9.57;;;7.37;;
4961;SDS011;2496;52.468;13.342;2024-03-06T10:13:43;9.87;;;7.97;;
4961;SDS011;2496;52.468;13.342;2024-03-06T10:16:10;9.70;;;7.33;;
4961;SDS011;2496;52.468;13.342;2024-03-06T10:18:39;13.70;;;9.13;;
4961;SDS011;2496;52.468;13.342;2024-03-06T10:21:06;14.13;;;8.77;;
4961;SDS011;2496;52.468;13.342;2024-03-06T10:23:34;10.33;;;7.80;;
4961;SDS011;2496;52.468;13.342;2024-03-06T10:26:03;12.30;;;9.10;;
4961;SDS011;2496;52.468;13.342;2024-03-06T10:28:34;12.87;;;7.80;;
4961;SDS011;2496;52.468;13.342;2024-03-06T10:31:04;13.70;;;9.60;;
4961;SDS011;2496;52.468;13.342;2024-03-06T10:33:33;15.30;;;9.60;;
4961;SDS011;2496;52.468;13.342;2024-03-06T10:36:00;12.13;;;9.10;;
4961;SDS011;2496;52.468;13.342;2024-03-06T10:38:27;18.70;;;10.83;;
4961;SDS011;2496;52.468;13.342;2024-03-06T10:41:03;12.40;;;9.13;;
4961;SDS011;2496;52.468;13.342;2024-03-06T10:43:32;12.70;;;8.10;;
4961;SDS011;2496;52.468;13.342;2024-03-06T10:46:02;16.07;;;8.77;;
4961;SDS011;2496;52.468;13.342;2024-03-06T10:48:32;12.70;;;7.97;;
4961;SDS011;2496;52.468;13.342;2024-03-06T10:51:01;11.10;;;7.97;;
4961;SDS011;2496;52.468;13.342;2024-03-06T10:53:29;11.20;;;7.67;;
4961;SDS011;2496;52.468;13.342;2024-03-06T10:55:58;14.00;;;9.10;;
4961;SDS011;2496;52.468;13.342;2024-03-06T10:58:27;16.03;;;9.70;;
4961;SDS011;2496;52.468;13.342;2024-03-06T11:00:55;16.73;;;7.90;;
4961;SDS011;2496;52.468;13.342;2024-03-06T11:03:24;16.53;;;8.50;;
4961;SDS011;2496;52.468;13.342;2024-03-06T11:05:55;10.83;;;7.70;;
4961;SDS011;2496;52.468;13.342;2024-03-06T11:08:22;13.13;;;8.00;;
4961;SDS011;2496;52.468;13.342;2024-03-06T11:10:50;10.97;;;7.33;;
4961;SDS011;2496;52.468;13.342;2024-03-06T11:13:23;11.20;;;7.97;;
4961;SDS011;2496;52.468;13.342;2024-03-06T11:15:53;14.40;;;9.30;;
4961;SDS011;2496;52.468;13.342;2024-03-06T11:18:43;11.30;;;7.63;;
4961;SDS011;2496;52.468;13.342;2024-03-06T11:21:29;14.10;;;8.83;;
4961;SDS011;2496;52.468;13.342;2024-03-06T11:24:12;14.10;;;8.40;;
4961;SDS011;2496;52.468;13.342;2024-03-06T11:26:46;22.97;;;8.43;;
4961;SDS011;2496;52.468;13.342;2024-03-06T11:29:17;14.87;;;9.23;;
4961;SDS011;2496;52.468;13.342;2024-03-06T11:32:03;19.83;;;10.17;;
4961;SDS011;2496;52.468;13.342;2024-03-06T11:34:33;16.17;;;9.37;;
4961;SDS011;2496;52.468;13.342;2024-03-06T11:37:03;15.07;;;9.30;;
4961;SDS011;2496;52.468;13.342;2024-03-06T11:39:36;14.60;;;8.47;;
4961;SDS011;2496;52.468;13.342;2024-03-06T11:42:04;11.10;;;8.03;;
4961;SDS011;2496;52.468;13.342;2024-03-06T11:44:33;16.20;;;9.67;;
4961;SDS011;2496;52.468;13.342;2024-03-06T11:47:02;10.47;;;7.37;;
4961;SDS011;2496;52.468;13.342;2024-03-06T11:49:32;11.00;;;8.03;;
4961;SDS011;2496;52.468;13.342;2024-03-06T11:52:00;13.27;;;8.77;;
4961;SDS011;2496;52.468;13.342;2024-03-06T11:54:29;13.43;;;8.80;;
4961;SDS011;2496;52.468;13.342;2024-03-06T11:56:57;13.90;;;8.30;;
4961;SDS011;2496;52.468;13.342;2024-03-06T11:59:26;12.53;;;8.50;;
4961;SDS011;2496;52.468;13.342;2024-03-06T12:01:54;13.40;;;8.90;;
4961;SDS011;2496;52.468;13.342;2024-03-06T12:04:24;17.63;;;8.73;;
4961;SDS011;2496;52.468;13.342;2024-03-06T12:06:51;15.23;;;10.13;;
4961;SDS011;2496;52.468;13.342;2024-03-06T12:09:18;15.03;;;10.20;;
4961;SDS011;2496;52.468;13.342;2024-03-06T12:11:46;15.50;;;10.33;;
4961;SDS011;2496;52.468;13.342;2024-03-06T12:14:13;17.40;;;11.03;;
4961;SDS011;2496;52.468;13.342;2024-03-06T12:16:42;15.57;;;9.80;;
4961;SDS011;2496;52.468;13.342;2024-03-06T12:19:10;16.27;;;10.87;;
4961;SDS011;2496;52.468;13.342;2024-03-06T12:21:38;16.13;;;11.40;;
4961;SDS011;2496;52.468;13.342;2024-03-06T12:24:06;14.57;;;11.47;;
4961;SDS011;2496;52.468;13.342;2024-03-06T12:26:34;22.10;;;13.90;;
4961;SDS011;2496;52.468;13.342;2024-03-06T12:29:06;17.30;;;13.40;;
4961;SDS011;2496;52.468;13.342;2024-03-06T12:31:34;20.03;;;12.37;;
4961;SDS011;2496;52.468;13.342;2024-03-06T12:34:03;21.80;;;13.63;;
4961;SDS011;2496;52.468;13.342;2024-03-06T12:36:30;18.47;;;14.00;;
4961;SDS011;2496;52.468;13.342;2024-03-06T12:39:02;17.47;;;12.67;;
4961;SDS011;2496;52.468;13.342;2024-03-06T12:41:37;15.43;;;11.70;;
4961;SDS011;2496;52.468;13.342;2024-03-06T12:44:05;15.33;;;11.27;;
4961;SDS011;2496;52.468;13.342;2024-03-06T12:46:32;16.77;;;10.67;;
4961;SDS011;2496;52.468;13.342;2024-03-06T12:48:59;14.60;;;9.53;;
4961;SDS011;2496;52.468;13.342;2024-03-06T12:51:26;18.40;;;10.77;;
4961;SDS011;2496;52.468;13.342;2024-03-06T12:53:53;16.63;;;10.97;;
4961;SDS011;2496;52.468;13.342;2024-03-06T12:56:22;13.87;;;9.60;;
4961;SDS011;2496;52.468;13.342;2024-03-06T12:58:50;12.70;;;8.90;;
4961;SDS011;2496;52.468;13.342;2024-03-06T13:01:17;11.37;;;8.90;;
4961;SDS011;2496;52.468;13.342;2024-03-06T13:03:45;12.40;;;9.70;;
4961;SDS011;2496;52.468;13.342;2024-03-06T13:06:12;12.40;;;8.80;;
4961;SDS011;2496;52.468;13.342;2024-03-06T13:08:39;14.30;;;9.87;;
4961;SDS011;2496;52.468;13.342;2024-03-06T13:11:06;19.20;;;9.20;;
4961;SDS011;2496;52.468;13.342;2024-03-06T13:13:36;17.13;;;11.80;;
4961;SDS011;2496;52.468;13.342;2024-03-06T13:16:03;17.63;;;10.80;;
4961;SDS011;2496;52.468;13.342;2024-03-06T13:18:30;17.80;;;10.30;;
4961;SDS011;2496;52.468;13.342;2024-03-06T13:20:57;15.67;;;10.57;;
4961;SDS011;2496;52.468;13.342;2024-03-06T13:23:25;14.43;;;10.90;;
4961;SDS011;2496;52.468;13.342;2024-03-06T13:25:52;12.17;;;10.53;;
4961;SDS011;2496;52.468;13.342;2024-03-06T13:28:19;15.43;;;10.80;;
4961;SDS011;2496;52.468;13.342;2024-03-06T13:30:48;17.40;;;11.57;;
4961;SDS011;2496;52.468;13.342;2024-03-06T13:33:16;17.17;;;11.70;;
4961;SDS011;2496;52.468;13.342;2024-03-06T13:35:43;19.43;;;11.03;;
4961;SDS011;2496;52.468;13.342;2024-03-06T13:38:10;20.10;;;13.13;;
4961;SDS011;2496;52.468;13.342;2024-03-06T13:40:37;17.33;;;13.40;;
4961;SDS011;2496;52.468;13.342;2024-03-06T13:43:04;19.87;;;12.70;;
4961;SDS011;2496;52.468;13.342;2024-03-06T13:45:32;24.67;;;15.23;;
4961;SDS011;2496;52.468;13.342;2024-03-06T13:48:01;24.30;;;13.43;;
4961;SDS011;2496;52.468;13.342;2024-03-06T13:50:28;25.63;;;11.60;;
4961;SDS011;2496;52.468;13.342;2024-03-06T13:52:55;29.83;;;14.10;;
4961;SDS011;2496;52.468;13.342;2024-03-06T13:55:22;19.10;;;12.67;;
4961;SDS011;2496;52.468;13.342;2024-03-06T13:57:50;23.10;;;14.43;;
4961;SDS011;2496;52.468;13.342;2024-03-06T14:00:17;25.50;;;14.10;;
4961;SDS011;2496;52.468;13.342;2024-03-06T14:02:45;27.77;;;14.90;;
4961;SDS011;2496;52.468;13.342;2024-03-06T14:05:14;24.40;;;13.40;;
4961;SDS011;2496;52.468;13.342;2024-03-06T14:07:41;23.47;;;13.23;;
4961;SDS011;2496;52.468;13.342;2024-03-06T14:10:09;27.27;;;16.37;;
4961;SDS011;2496;52.468;13.342;2024-03-06T14:12:36;30.27;;;17.37;;
4961;SDS011;2496;52.468;13.342;2024-03-06T14:15:04;32.33;;;17.57;;
4961;SDS011;2496;52.468;13.342;2024-03-06T14:17:34;35.57;;;18.40;;
4961;SDS011;2496;52.468;13.342;2024-03-06T14:20:01;32.50;;;17.80;;
4961;SDS011;2496;52.468;13.342;2024-03-06T14:22:30;38.10;;;14.90;;
4961;SDS011;2496;52.468;13.342;2024-03-06T14:24:57;24.77;;;14.10;;
4961;SDS011;2496;52.468;13.342;2024-03-06T14:27:24;26.00;;;14.90;;
4961;SDS011;2496;52.468;13.342;2024-03-06T14:29:51;22.80;;;12.50;;
4961;SDS011;2496;52.468;13.342;2024-03-06T14:32:19;19.30;;;12.57;;
4961;SDS011;2496;52.468;13.342;2024-03-06T14:34:46;20.20;;;12.57;;
4961;SDS011;2496;52.468;13.342;2024-03-06T14:37:13;22.00;;;13.03;;
4961;SDS011;2496;52.468;13.342;2024-03-06T14:39:42;27.53;;;12.60;;
4961;SDS011;2496;52.468;13.342;2024-03-06T14:42:09;18.43;;;11.23;;